createdAt,value
2022-09-24T00:02:03.959Z,2.13
2022-09-24T00:04:31.826Z,2.05
2022-09-24T00:06:59.180Z,2.15
2022-09-24T00:09:26.706Z,1.90
2022-09-24T00:11:54.123Z,2.38
2022-09-24T00:14:21.902Z,1.92
2022-09-24T00:16:50.258Z,2.17
2022-09-24T00:19:17.703Z,2.10
2022-09-24T00:21:45.365Z,2.33
2022-09-24T00:24:36.163Z,2.00
2022-09-24T00:27:05.784Z,2.25
2022-09-24T00:29:35.795Z,2.22
2022-09-24T00:32:05.323Z,2.30
2022-09-24T00:34:32.890Z,2.58
2022-09-24T00:37:00.451Z,2.75
2022-09-24T00:39:27.979Z,2.40
2022-09-24T00:41:56.008Z,2.30
2022-09-24T00:44:35.668Z,2.30
2022-09-24T00:47:03.354Z,2.20
2022-09-24T00:49:31.622Z,2.22
2022-09-24T00:51:59.454Z,2.17
2022-09-24T00:54:29.070Z,1.90
2022-09-24T00:57:00.061Z,2.03
2022-09-24T00:59:29.621Z,2.10
2022-09-24T01:01:59.581Z,2.38
2022-09-24T01:04:28.751Z,2.40
2022-09-24T01:06:57.110Z,1.98
2022-09-24T01:09:27.444Z,2.40
2022-09-24T01:12:04.223Z,2.30
2022-09-24T01:14:40.738Z,2.50
2022-09-24T01:17:27.972Z,2.30
2022-09-24T01:20:23.471Z,2.30
2022-09-24T01:22:59.613Z,2.28
2022-09-24T01:25:54.890Z,2.30
2022-09-24T01:28:41.013Z,2.30
2022-09-24T01:31:24.976Z,2.15
2022-09-24T01:33:54.870Z,2.30
2022-09-24T01:36:24.752Z,1.90
2022-09-24T01:38:53.791Z,1.90
2022-09-24T01:41:22.699Z,2.00
2022-09-24T01:43:50.691Z,2.20
2022-09-24T01:46:21.091Z,1.90
2022-09-24T01:48:49.388Z,2.05
2022-09-24T01:51:31.398Z,2.20
2022-09-24T01:54:11.494Z,2.15
2022-09-24T01:56:57.305Z,2.30
2022-09-24T01:59:32.465Z,2.08
2022-09-24T02:02:14.755Z,2.00
2022-09-24T02:04:52.361Z,2.08
2022-09-24T02:07:33.703Z,2.15
2022-09-24T02:10:01.446Z,2.00
2022-09-24T02:12:35.347Z,2.00
2022-09-24T02:15:21.391Z,2.07
2022-09-24T02:17:54.562Z,1.98
2022-09-24T02:20:24.007Z,1.90
2022-09-24T02:22:52.503Z,2.30
2022-09-24T02:25:33.103Z,2.03
2022-09-24T02:28:00.822Z,2.33
2022-09-24T02:30:28.244Z,2.30
2022-09-24T02:32:57.243Z,2.20
2022-09-24T02:35:24.899Z,2.90
2022-09-24T02:37:52.469Z,2.27
2022-09-24T02:40:19.993Z,2.80
2022-09-24T02:42:47.883Z,2.45
2022-09-24T02:45:15.403Z,2.60
2022-09-24T02:47:42.902Z,2.40
2022-09-24T02:50:10.426Z,2.23
2022-09-24T02:52:38.484Z,2.55
2022-09-24T02:55:06.226Z,2.20
2022-09-24T02:57:33.782Z,2.27
2022-09-24T03:00:01.603Z,2.33
2022-09-24T03:02:29.214Z,2.10
2022-09-24T03:04:56.790Z,2.30
2022-09-24T03:07:24.205Z,2.50
2022-09-24T03:09:51.589Z,2.30
2022-09-24T03:12:19.221Z,2.22
2022-09-24T03:14:46.582Z,1.98
2022-09-24T03:17:14.105Z,2.30
2022-09-24T03:19:42.123Z,2.20
2022-09-24T03:22:09.877Z,2.10
2022-09-24T03:24:37.429Z,1.73
2022-09-24T03:27:05.010Z,1.80
2022-09-24T03:29:50.702Z,1.90
2022-09-24T03:32:18.391Z,2.17
2022-09-24T03:34:45.749Z,1.80
2022-09-24T03:37:13.705Z,2.00
2022-09-24T03:39:41.149Z,1.90
2022-09-24T03:42:08.616Z,2.10
2022-09-24T03:44:35.979Z,1.90
2022-09-24T03:47:03.765Z,2.10
2022-09-24T03:49:31.154Z,1.85
2022-09-24T03:51:58.733Z,2.42
2022-09-24T03:54:26.054Z,2.05
2022-09-24T03:56:53.597Z,1.98
2022-09-24T03:59:20.973Z,1.90
2022-09-24T04:01:48.468Z,1.60
2022-09-24T04:04:17.117Z,2.08
2022-09-24T04:06:44.959Z,1.60
2022-09-24T04:09:12.393Z,1.80
2022-09-24T04:11:39.985Z,1.50
2022-09-24T04:14:07.542Z,1.80
2022-09-24T04:16:35.243Z,1.67
2022-09-24T04:19:02.734Z,1.42
2022-09-24T04:21:30.547Z,1.50
2022-09-24T04:23:57.949Z,1.55
2022-09-24T04:26:26.050Z,1.60
2022-09-24T04:28:53.421Z,1.80
2022-09-24T04:31:21.358Z,1.70
2022-09-24T04:33:48.878Z,1.50
2022-09-24T04:36:17.144Z,1.40
2022-09-24T04:38:46.510Z,1.52
2022-09-24T04:41:16.870Z,1.48
2022-09-24T04:43:46.952Z,1.77
2022-09-24T04:46:14.469Z,1.40
2022-09-24T04:48:42.104Z,1.20
2022-09-24T04:51:11.444Z,1.20
2022-09-24T04:53:39.141Z,1.30
2022-09-24T04:56:11.482Z,1.33
2022-09-24T04:58:39.705Z,1.35
2022-09-24T05:01:07.195Z,1.48
2022-09-24T05:03:35.938Z,1.10
2022-09-24T05:06:03.441Z,1.30
2022-09-24T05:08:31.046Z,1.33
2022-09-24T05:10:58.444Z,1.30
2022-09-24T05:13:25.886Z,1.08
2022-09-24T05:15:53.319Z,1.40
2022-09-24T05:18:20.841Z,2.67
2022-09-24T05:20:48.259Z,2.33
2022-09-24T05:23:15.859Z,1.60
2022-09-24T05:26:01.589Z,1.50
2022-09-24T05:28:29.151Z,1.45
2022-09-24T05:31:00.563Z,1.30
2022-09-24T05:33:28.176Z,1.53
2022-09-24T05:35:57.631Z,1.52
2022-09-24T05:38:25.499Z,1.30
2022-09-24T05:40:53.091Z,1.60
2022-09-24T05:43:20.844Z,1.23
2022-09-24T05:45:51.623Z,1.10
2022-09-24T05:48:19.264Z,1.10
2022-09-24T05:50:46.680Z,1.00
2022-09-24T05:53:14.524Z,1.10
2022-09-24T05:55:43.917Z,1.10
2022-09-24T05:58:12.024Z,1.48
2022-09-24T06:00:39.669Z,1.13
2022-09-24T06:03:12.381Z,1.20
2022-09-24T06:05:43.712Z,1.10
2022-09-24T06:08:17.430Z,1.20
2022-09-24T06:10:47.554Z,1.50
2022-09-24T06:13:20.191Z,1.43
2022-09-24T06:15:48.869Z,1.40
2022-09-24T06:18:17.629Z,1.50
2022-09-24T06:20:45.307Z,1.55
2022-09-24T06:23:14.288Z,1.55
2022-09-24T06:25:42.906Z,1.50
2022-09-24T06:28:10.401Z,1.50
2022-09-24T06:30:41.930Z,1.50
2022-09-24T06:33:12.237Z,2.00
2022-09-24T06:35:42.590Z,1.40
2022-09-24T06:38:15.152Z,1.70
2022-09-24T06:40:46.974Z,1.75
2022-09-24T06:43:21.830Z,1.90
2022-09-24T06:45:49.426Z,2.00
2022-09-24T06:48:17.971Z,1.90
2022-09-24T06:50:45.794Z,2.08
2022-09-24T06:53:13.434Z,1.83
2022-09-24T06:55:41.047Z,1.88
2022-09-24T06:58:11.657Z,1.70
2022-09-24T07:00:42.780Z,1.77
2022-09-24T07:03:16.869Z,1.90
2022-09-24T07:05:44.512Z,2.00
2022-09-24T07:08:15.065Z,1.60
2022-09-24T07:10:45.595Z,1.80
2022-09-24T07:13:14.785Z,1.77
2022-09-24T07:15:46.382Z,2.20
2022-09-24T07:18:14.164Z,1.75
2022-09-24T07:20:41.851Z,2.10
2022-09-24T07:23:11.750Z,1.90
2022-09-24T07:25:39.781Z,1.83
2022-09-24T07:28:11.030Z,1.90
2022-09-24T07:30:38.964Z,2.00
2022-09-24T07:33:10.760Z,2.20
2022-09-24T07:35:39.637Z,1.90
2022-09-24T07:38:16.682Z,2.20
2022-09-24T07:41:01.203Z,2.22
2022-09-24T07:43:32.526Z,2.22
2022-09-24T07:46:00.061Z,2.58
2022-09-24T07:48:27.543Z,2.10
2022-09-24T07:50:55.462Z,2.55
2022-09-24T07:53:23.824Z,2.47
2022-09-24T07:55:53.420Z,2.42
2022-09-24T07:58:20.911Z,6.45
2022-09-24T08:00:48.474Z,2.50
2022-09-24T08:03:15.915Z,2.22
2022-09-24T08:05:46.859Z,2.40
2022-09-24T08:08:16.725Z,2.40
2022-09-24T08:10:48.563Z,2.47
2022-09-24T08:13:23.945Z,2.42
2022-09-24T08:15:59.772Z,2.40
2022-09-24T08:18:28.972Z,2.45
2022-09-24T08:20:56.426Z,2.80
2022-09-24T08:23:24.129Z,2.50
2022-09-24T08:25:53.874Z,3.17
2022-09-24T08:28:21.397Z,2.72
2022-09-24T08:30:48.941Z,2.90
2022-09-24T08:33:16.591Z,2.90
2022-09-24T08:35:44.042Z,2.97
2022-09-24T08:38:11.578Z,3.33
2022-09-24T08:40:44.708Z,3.22
2022-09-24T08:43:29.980Z,3.70
2022-09-24T08:46:18.955Z,3.50
2022-09-24T08:48:51.719Z,3.72
2022-09-24T08:51:22.394Z,4.77
2022-09-24T08:54:10.842Z,4.18
2022-09-24T08:56:44.212Z,4.70
2022-09-24T08:59:24.606Z,4.50
2022-09-24T09:02:10.569Z,4.93
2022-09-24T09:05:02.905Z,5.53
2022-09-24T09:07:40.267Z,6.30
2022-09-24T09:10:15.057Z,5.55
2022-09-24T09:12:55.420Z,5.55
2022-09-24T09:15:29.925Z,5.10
2022-09-24T09:18:13.190Z,5.78
2022-09-24T09:20:49.548Z,6.28
2022-09-24T09:23:21.082Z,5.25
2022-09-24T09:25:59.991Z,5.82
2022-09-24T09:28:29.364Z,5.43
2022-09-24T09:31:23.972Z,4.68
2022-09-24T09:34:28.523Z,4.27
2022-09-24T09:37:11.107Z,4.00
2022-09-24T09:39:57.377Z,3.83
2022-09-24T09:42:36.522Z,4.35
2022-09-24T09:45:30.251Z,4.32
2022-09-24T09:47:58.767Z,3.92
2022-09-24T09:50:44.939Z,3.70
2022-09-24T09:53:27.693Z,3.70
2022-09-24T09:56:09.921Z,4.03
2022-09-24T09:58:44.627Z,3.20
2022-09-24T10:01:20.173Z,3.28
2022-09-24T10:03:52.944Z,3.38
2022-09-24T10:06:30.829Z,3.75
2022-09-24T10:09:17.233Z,3.40
2022-09-24T10:11:44.891Z,3.55
2022-09-24T10:14:18.477Z,3.58
2022-09-24T10:16:53.226Z,3.20
2022-09-24T10:19:27.830Z,3.60
2022-09-24T10:22:00.037Z,3.13
2022-09-24T10:24:29.765Z,4.10
2022-09-24T10:26:58.328Z,3.97
2022-09-24T10:29:46.336Z,3.65
2022-09-24T10:32:22.657Z,3.00
2022-09-24T10:35:01.736Z,3.33
2022-09-24T10:37:30.188Z,7.65
2022-09-24T10:40:14.331Z,2.38
2022-09-24T10:42:41.980Z,2.00
2022-09-24T10:45:19.307Z,2.30
2022-09-24T10:48:19.104Z,1.90
2022-09-24T10:50:50.084Z,2.17
2022-09-24T10:54:14.504Z,2.20
2022-09-24T10:56:51.930Z,1.95
2022-09-24T11:00:00.436Z,2.10
2022-09-24T11:02:54.252Z,2.00
2022-09-24T11:05:30.555Z,2.15
2022-09-24T11:08:06.870Z,2.13
2022-09-24T11:11:11.396Z,2.20
2022-09-24T11:13:57.620Z,2.10
2022-09-24T11:16:57.475Z,2.22
2022-09-24T11:20:00.422Z,2.20
2022-09-24T11:22:39.898Z,2.33
2022-09-24T11:25:18.514Z,2.40
2022-09-24T11:27:58.976Z,2.45
2022-09-24T11:30:47.680Z,2.20
2022-09-24T11:33:31.106Z,2.15
2022-09-24T11:36:01.462Z,2.45
2022-09-24T11:38:57.981Z,2.33
2022-09-24T11:41:31.308Z,2.40
2022-09-24T11:44:25.897Z,2.50
2022-09-24T11:47:14.782Z,2.63
2022-09-24T11:50:27.943Z,2.50
2022-09-24T11:53:13.561Z,2.60
2022-09-24T11:55:57.201Z,2.58
2022-09-24T11:58:34.668Z,2.35
2022-09-24T12:01:15.083Z,2.50
2022-09-24T12:04:01.367Z,1.93
2022-09-24T12:06:32.688Z,2.30
2022-09-24T12:09:05.072Z,2.30
2022-09-24T12:11:57.346Z,2.47
2022-09-24T12:14:30.665Z,2.47
2022-09-24T12:17:05.790Z,2.45
2022-09-24T12:19:55.948Z,2.45
2022-09-24T12:22:26.852Z,2.60
2022-09-24T12:24:58.746Z,2.47
2022-09-24T12:27:34.266Z,2.70
2022-09-24T12:30:34.743Z,2.40
2022-09-24T12:33:26.340Z,2.97
2022-09-24T12:36:09.470Z,2.72
2022-09-24T12:38:42.734Z,2.50
2022-09-24T12:41:19.190Z,2.95
2022-09-24T12:44:08.460Z,2.53
2022-09-24T12:46:42.074Z,2.95
2022-09-24T12:49:24.958Z,2.53
2022-09-24T12:51:54.858Z,2.33
2022-09-24T12:54:33.488Z,2.22
2022-09-24T12:57:25.979Z,2.25
2022-09-24T12:59:58.634Z,2.30
2022-09-24T13:02:29.370Z,2.20
2022-09-24T13:05:14.109Z,2.00
2022-09-24T13:07:41.947Z,2.10
2022-09-24T13:10:24.916Z,5.53
2022-09-24T13:12:56.158Z,2.10
2022-09-24T13:15:40.754Z,1.60
2022-09-24T13:18:11.937Z,1.42
2022-09-24T13:20:47.589Z,1.70
2022-09-24T13:23:23.778Z,1.40
2022-09-24T13:26:13.666Z,2.10
2022-09-24T13:28:59.649Z,1.30
2022-09-24T13:31:58.876Z,1.50
2022-09-24T13:34:32.657Z,1.40
2022-09-24T13:37:39.809Z,1.50
2022-09-24T13:40:21.779Z,1.30
2022-09-24T13:43:04.199Z,1.27
2022-09-24T13:45:34.412Z,1.50
2022-09-24T13:48:14.464Z,1.40
2022-09-24T13:50:51.116Z,1.33
2022-09-24T13:53:42.496Z,1.10
2022-09-24T13:56:21.833Z,1.00
2022-09-24T13:58:52.021Z,1.20
2022-09-24T14:01:27.370Z,1.10
2022-09-24T14:03:59.070Z,1.10
2022-09-24T14:06:55.313Z,1.38
2022-09-24T14:09:37.402Z,1.30
2022-09-24T14:12:16.884Z,1.20
2022-09-24T14:14:51.385Z,0.90
2022-09-24T14:17:32.528Z,0.90
2022-09-24T14:20:00.200Z,1.00
2022-09-24T14:22:37.047Z,1.00
2022-09-24T14:25:10.387Z,1.08
2022-09-24T14:27:47.051Z,1.10
2022-09-24T14:30:30.258Z,1.00
2022-09-24T14:33:08.044Z,1.20
2022-09-24T14:35:41.416Z,1.10
2022-09-24T14:38:15.009Z,1.10
2022-09-24T14:40:51.255Z,1.30
2022-09-24T14:43:23.992Z,1.38
2022-09-24T14:45:52.599Z,1.23
2022-09-24T14:48:41.387Z,1.40
2022-09-24T14:51:34.025Z,1.50
2022-09-24T14:54:04.970Z,1.75
2022-09-24T14:56:34.342Z,1.40
2022-09-24T14:59:01.855Z,1.50
2022-09-24T15:01:34.325Z,1.50
2022-09-24T15:04:05.823Z,1.58
2022-09-24T15:06:36.245Z,1.38
2022-09-24T15:09:28.970Z,1.50
2022-09-24T15:12:17.576Z,1.37
2022-09-24T15:14:55.796Z,1.45
2022-09-24T15:17:27.055Z,1.60
2022-09-24T15:19:56.613Z,1.60
2022-09-24T15:22:27.051Z,1.50
2022-09-24T15:25:01.011Z,1.53
2022-09-24T15:27:34.523Z,1.60
2022-09-24T15:30:05.467Z,1.70
2022-09-24T15:32:36.157Z,1.65
2022-09-24T15:35:09.656Z,1.55
2022-09-24T15:37:40.808Z,2.10
2022-09-24T15:40:16.128Z,1.80
2022-09-24T15:42:43.751Z,1.63
2022-09-24T15:45:17.366Z,2.45
2022-09-24T15:47:44.981Z,2.20
2022-09-24T15:50:13.055Z,1.92
2022-09-24T15:52:51.090Z,1.77
2022-09-24T15:55:20.195Z,1.80
2022-09-24T15:57:47.877Z,1.90
2022-09-24T16:00:22.322Z,1.40
2022-09-24T16:02:52.916Z,1.67
2022-09-24T16:05:20.520Z,1.80
2022-09-24T16:07:48.015Z,2.20
2022-09-24T16:10:16.516Z,1.70
2022-09-24T16:12:44.395Z,1.98
2022-09-24T16:15:16.602Z,1.48
2022-09-24T16:17:44.651Z,1.95
2022-09-24T16:20:12.268Z,1.92
2022-09-24T16:22:40.347Z,1.70
2022-09-24T16:25:08.811Z,1.70
2022-09-24T16:27:37.633Z,1.70
2022-09-24T16:30:07.007Z,1.40
2022-09-24T16:32:37.037Z,5.80
2022-09-24T16:35:06.683Z,1.60
2022-09-24T16:37:34.286Z,1.60
2022-09-24T16:40:01.866Z,1.63
2022-09-24T16:42:29.496Z,1.60
2022-09-24T16:44:56.882Z,1.88
2022-09-24T16:47:25.194Z,1.50
2022-09-24T16:49:52.882Z,1.90
2022-09-24T16:52:20.687Z,1.77
2022-09-24T16:54:48.497Z,1.65
2022-09-24T16:57:21.785Z,1.80
2022-09-24T16:59:49.371Z,1.98
2022-09-24T17:02:18.436Z,1.63
2022-09-24T17:04:46.023Z,1.60
2022-09-24T17:07:13.756Z,1.55
2022-09-24T17:10:05.483Z,1.67
2022-09-24T17:12:33.215Z,1.60
2022-09-24T17:15:02.659Z,1.60
2022-09-24T17:17:30.524Z,1.60
2022-09-24T17:19:58.668Z,1.83
2022-09-24T17:22:26.425Z,1.80
2022-09-24T17:24:53.894Z,1.52
2022-09-24T17:27:21.382Z,1.70
2022-09-24T17:29:52.455Z,1.60
2022-09-24T17:32:20.773Z,1.70
2022-09-24T17:34:48.559Z,1.80
2022-09-24T17:37:16.507Z,1.50
2022-09-24T17:39:44.053Z,1.80
2022-09-24T17:42:11.551Z,1.70
2022-09-24T17:44:39.580Z,1.73
2022-09-24T17:47:08.060Z,1.70
2022-09-24T17:49:36.706Z,1.60
2022-09-24T17:52:04.746Z,1.75
2022-09-24T17:54:32.871Z,1.80
2022-09-24T17:57:02.228Z,1.65
2022-09-24T17:59:29.866Z,1.73
2022-09-24T18:01:57.705Z,1.73
2022-09-24T18:04:27.345Z,2.10
2022-09-24T18:06:54.946Z,1.88
2022-09-24T18:09:22.567Z,1.83
2022-09-24T18:11:54.438Z,1.57
2022-09-24T18:15:25.722Z,1.70
2022-09-24T18:17:53.753Z,1.50
2022-09-24T18:20:24.597Z,1.90
2022-09-24T18:22:55.451Z,1.77
2022-09-24T18:25:24.421Z,1.93
2022-09-24T18:27:54.433Z,2.00
2022-09-24T18:30:28.825Z,1.92
2022-09-24T18:33:01.789Z,1.73
2022-09-24T18:35:41.535Z,1.90
2022-09-24T18:38:10.712Z,1.55
2022-09-24T18:40:40.410Z,2.00
2022-09-24T18:43:08.664Z,1.85
2022-09-24T18:45:36.645Z,1.93
2022-09-24T18:48:04.411Z,1.90
2022-09-24T18:50:32.057Z,1.92
2022-09-24T18:53:00.564Z,1.90
2022-09-24T18:55:28.111Z,2.00
2022-09-24T18:57:55.906Z,2.10
2022-09-24T19:00:41.752Z,1.90
2022-09-24T19:03:09.620Z,1.92
2022-09-24T19:05:39.687Z,1.77
2022-09-24T19:08:13.759Z,1.88
2022-09-24T19:10:45.101Z,1.90
2022-09-24T19:13:15.155Z,1.75
2022-09-24T19:15:44.122Z,1.90
2022-09-24T19:18:15.180Z,1.77
2022-09-24T19:20:49.094Z,1.95
2022-09-24T19:23:17.466Z,2.13
2022-09-24T19:25:45.456Z,2.08
2022-09-24T19:28:13.936Z,1.90
2022-09-24T19:30:48.014Z,2.10
2022-09-24T19:33:17.339Z,2.10
2022-09-24T19:36:05.463Z,1.73
2022-09-24T19:38:36.000Z,2.20
2022-09-24T19:41:13.910Z,2.05
2022-09-24T19:43:46.061Z,3.53
2022-09-24T19:46:17.347Z,2.50
2022-09-24T19:48:54.990Z,2.20
2022-09-24T19:51:29.754Z,2.30
2022-09-24T19:54:00.577Z,2.60
2022-09-24T19:56:30.043Z,2.90
2022-09-24T19:58:59.231Z,3.10
2022-09-24T20:01:29.744Z,4.13
2022-09-24T20:04:01.396Z,3.85
2022-09-24T20:06:34.199Z,4.70
2022-09-24T20:09:04.307Z,5.25
2022-09-24T20:11:33.061Z,5.88
2022-09-24T20:14:01.788Z,5.18
2022-09-24T20:16:35.235Z,5.40
2022-09-24T20:19:04.538Z,5.53
2022-09-24T20:21:37.219Z,5.22
2022-09-24T20:24:07.922Z,5.03
2022-09-24T20:26:56.316Z,5.05
2022-09-24T20:29:24.397Z,4.80
2022-09-24T20:31:55.800Z,5.47
2022-09-24T20:34:33.889Z,4.38
2022-09-24T20:37:02.714Z,3.87
2022-09-24T20:39:33.164Z,3.90
2022-09-24T20:42:04.075Z,3.70
2022-09-24T20:44:32.574Z,3.50
2022-09-24T20:47:01.050Z,3.72
2022-09-24T20:49:30.204Z,3.20
2022-09-24T20:51:59.150Z,2.80
2022-09-24T20:54:28.825Z,3.42
2022-09-24T20:56:57.247Z,2.95
2022-09-24T20:59:26.957Z,3.17
2022-09-24T21:01:55.173Z,3.00
2022-09-24T21:04:23.463Z,2.70
2022-09-24T21:06:51.318Z,2.88
2022-09-24T21:09:19.048Z,2.75
2022-09-24T21:11:46.924Z,2.80
2022-09-24T21:14:15.019Z,2.50
2022-09-24T21:16:42.551Z,2.63
2022-09-24T21:19:12.763Z,2.80
2022-09-24T21:21:40.950Z,2.93
2022-09-24T21:24:12.846Z,2.50
2022-09-24T21:26:41.441Z,2.50
2022-09-24T21:29:12.079Z,2.70
2022-09-24T21:31:42.347Z,2.70
2022-09-24T21:34:11.962Z,2.63
2022-09-24T21:36:45.011Z,2.40
2022-09-24T21:39:18.335Z,2.20
2022-09-24T21:41:56.007Z,2.65
2022-09-24T21:44:25.969Z,2.20
2022-09-24T21:46:55.011Z,2.50
2022-09-24T21:49:23.157Z,2.22
2022-09-24T21:51:52.778Z,2.22
2022-09-24T21:54:20.555Z,1.95
2022-09-24T21:56:48.501Z,2.20
2022-09-24T21:59:35.182Z,2.38
2022-09-24T22:02:04.458Z,2.30
2022-09-24T22:04:33.481Z,2.50
2022-09-24T22:07:01.336Z,2.15
2022-09-24T22:09:30.187Z,2.05
2022-09-24T22:12:00.766Z,2.10
2022-09-24T22:14:28.777Z,2.33
2022-09-24T22:16:56.979Z,2.47
2022-09-24T22:19:24.795Z,2.20
2022-09-24T22:21:52.719Z,2.42
2022-09-24T22:24:20.533Z,2.85
2022-09-24T22:26:48.618Z,2.40
2022-09-24T22:29:16.501Z,2.80
2022-09-24T22:31:44.208Z,2.83
2022-09-24T22:34:30.678Z,2.90
2022-09-24T22:36:58.346Z,2.25
2022-09-24T22:39:25.934Z,2.80
2022-09-24T22:41:54.454Z,2.80
2022-09-24T22:44:22.143Z,2.63
2022-09-24T22:46:49.856Z,2.90
2022-09-24T22:49:17.451Z,2.80
2022-09-24T22:51:45.090Z,2.45
2022-09-24T22:54:12.951Z,2.70
2022-09-24T22:56:40.926Z,2.83
2022-09-24T22:59:08.503Z,2.83
2022-09-24T23:01:41.532Z,2.95
2022-09-24T23:04:10.802Z,3.10
2022-09-24T23:06:38.471Z,3.13
2022-09-24T23:09:06.192Z,2.72
2022-09-24T23:11:35.448Z,2.90
2022-09-24T23:14:07.175Z,2.58
2022-09-24T23:16:38.992Z,2.88
2022-09-24T23:19:08.896Z,2.75
2022-09-24T23:21:37.431Z,2.50
2022-09-24T23:24:08.671Z,2.42
2022-09-24T23:26:37.012Z,2.67
2022-09-24T23:29:05.133Z,2.83
2022-09-24T23:31:35.869Z,2.63
2022-09-24T23:34:05.166Z,2.80
2022-09-24T23:36:33.829Z,2.63
2022-09-24T23:39:02.586Z,2.50
2022-09-24T23:41:31.964Z,2.60
2022-09-24T23:44:00.974Z,2.70
2022-09-24T23:46:28.715Z,2.93
2022-09-24T23:48:56.652Z,2.88
2022-09-24T23:51:24.366Z,2.80
2022-09-24T23:53:52.635Z,3.00
2022-09-24T23:56:20.978Z,2.88
2022-09-24T23:58:48.744Z,2.93
